sensor_id;sensor_type;location;lat;lon;timestamp;temperature;humidity
2565;DHT22;1292;48.020;7.822;2023-10-31T06:47:19;12.10;99.90
2565;DHT22;1292;48.020;7.822;2023-10-31T06:49:46;12.10;99.90
2565;DHT22;1292;48.020;7.822;2023-10-31T06:52:15;12.00;99.90
2565;DHT22;1292;48.020;7.822;2023-10-31T06:54:42;12.00;99.90
2565;DHT22;1292;48.020;7.822;2023-10-31T06:57:09;12.10;99.90
2565;DHT22;1292;48.020;7.822;2023-10-31T06:59:36;12.10;99.90
2565;DHT22;1292;48.020;7.822;2023-10-31T07:02:03;12.10;99.90
2565;DHT22;1292;48.020;7.822;2023-10-31T07:04:31;12.10;99.90
2565;DHT22;1292;48.020;7.822;2023-10-31T07:06:58;12.10;99.90
2565;DHT22;1292;48.020;7.822;2023-10-31T07:09:25;12.20;99.90
2565;DHT22;1292;48.020;7.822;2023-10-31T07:11:52;12.20;99.90
2565;DHT22;1292;48.020;7.822;2023-10-31T07:14:19;12.20;99.90
2565;DHT22;1292;48.020;7.822;2023-10-31T07:16:46;12.30;99.90
2565;DHT22;1292;48.020;7.822;2023-10-31T07:19:14;12.30;99.90
2565;DHT22;1292;48.020;7.822;2023-10-31T07:21:42;12.30;99.90
2565;DHT22;1292;48.020;7.822;2023-10-31T07:24:09;12.30;99.90
2565;DHT22;1292;48.020;7.822;2023-10-31T07:26:36;12.30;99.90
2565;DHT22;1292;48.020;7.822;2023-10-31T07:29:03;12.40;99.90
2565;DHT22;1292;48.020;7.822;2023-10-31T07:31:30;12.30;99.90
2565;DHT22;1292;48.020;7.822;2023-10-31T07:33:56;12.40;99.90
2565;DHT22;1292;48.020;7.822;2023-10-31T07:36:23;12.30;99.90
2565;DHT22;1292;48.020;7.822;2023-10-31T07:38:52;12.40;99.90
2565;DHT22;1292;48.020;7.822;2023-10-31T07:41:18;12.40;99.90
2565;DHT22;1292;48.020;7.822;2023-10-31T07:43:45;12.40;99.90
2565;DHT22;1292;48.020;7.822;2023-10-31T07:46:12;12.40;99.90
2565;DHT22;1292;48.020;7.822;2023-10-31T07:48:39;12.50;99.90
2565;DHT22;1292;48.020;7.822;2023-10-31T07:51:06;12.40;99.90
2565;DHT22;1292;48.020;7.822;2023-10-31T07:53:33;12.40;99.90
2565;DHT22;1292;48.020;7.822;2023-10-31T07:56:01;12.40;99.90
2565;DHT22;1292;48.020;7.822;2023-10-31T07:58:28;12.50;99.90
2565;DHT22;1292;48.020;7.822;2023-10-31T08:00:56;12.50;99.90
2565;DHT22;1292;48.020;7.822;2023-10-31T08:03:23;12.50;99.90
2565;DHT22;1292;48.020;7.822;2023-10-31T08:05:50;12.50;99.90
2565;DHT22;1292;48.020;7.822;2023-10-31T08:08:17;12.40;99.90
2565;DHT22;1292;48.020;7.822;2023-10-31T08:10:44;12.50;99.90
2565;DHT22;1292;48.020;7.822;2023-10-31T08:13:12;12.50;99.90
2565;DHT22;1292;48.020;7.822;2023-10-31T08:15:39;12.50;99.90
2565;DHT22;1292;48.020;7.822;2023-10-31T08:18:06;12.50;99.90
2565;DHT22;1292;48.020;7.822;2023-10-31T08:20:32;12.60;99.90
2565;DHT22;1292;48.020;7.822;2023-10-31T08:22:59;12.60;99.90
2565;DHT22;1292;48.020;7.822;2023-10-31T08:25:26;12.50;99.90
2565;DHT22;1292;48.020;7.822;2023-10-31T08:27:53;12.50;99.90
2565;DHT22;1292;48.020;7.822;2023-10-31T08:30:21;12.50;99.90
2565;DHT22;1292;48.020;7.822;2023-10-31T08:32:48;12.50;99.90
2565;DHT22;1292;48.020;7.822;2023-10-31T08:35:15;12.50;99.90
2565;DHT22;1292;48.020;7.822;2023-10-31T08:37:42;12.50;99.90
2565;DHT22;1292;48.020;7.822;2023-10-31T08:40:09;12.60;99.90
2565;DHT22;1292;48.020;7.822;2023-10-31T08:42:36;12.60;99.90
2565;DHT22;1292;48.020;7.822;2023-10-31T08:45:03;12.60;99.90
2565;DHT22;1292;48.020;7.822;2023-10-31T08:47:31;12.70;99.90
2565;DHT22;1292;48.020;7.822;2023-10-31T08:49:58;12.70;99.90
2565;DHT22;1292;48.020;7.822;2023-10-31T08:52:25;12.70;99.90
2565;DHT22;1292;48.020;7.822;2023-10-31T08:54:52;12.70;99.90
2565;DHT22;1292;48.020;7.822;2023-10-31T08:57:19;12.70;99.90
2565;DHT22;1292;48.020;7.822;2023-10-31T08:59:45;12.80;99.90
2565;DHT22;1292;48.020;7.822;2023-10-31T09:02:12;12.80;99.90
2565;DHT22;1292;48.020;7.822;2023-10-31T09:04:41;12.90;99.90
2565;DHT22;1292;48.020;7.822;2023-10-31T09:07:07;12.90;99.90
2565;DHT22;1292;48.020;7.822;2023-10-31T09:09:34;12.90;99.90
2565;DHT22;1292;48.020;7.822;2023-10-31T09:12:01;12.90;99.90
2565;DHT22;1292;48.020;7.822;2023-10-31T09:14:28;12.80;99.90
2565;DHT22;1292;48.020;7.822;2023-10-31T09:16:55;12.80;99.90
2565;DHT22;1292;48.020;7.822;2023-10-31T09:19:21;12.90;99.90
2565;DHT22;1292;48.020;7.822;2023-10-31T09:21:50;13.00;99.90
2565;DHT22;1292;48.020;7.822;2023-10-31T09:24:16;13.10;99.90
2565;DHT22;1292;48.020;7.822;2023-10-31T09:26:43;13.10;99.90
2565;DHT22;1292;48.020;7.822;2023-10-31T09:29:10;13.20;99.90
2565;DHT22;1292;48.020;7.822;2023-10-31T09:31:37;13.20;99.90
2565;DHT22;1292;48.020;7.822;2023-10-31T09:34:04;13.20;99.90
2565;DHT22;1292;48.020;7.822;2023-10-31T09:36:32;13.20;99.90
2565;DHT22;1292;48.020;7.822;2023-10-31T09:39:01;13.20;99.90
2565;DHT22;1292;48.020;7.822;2023-10-31T09:41:28;13.20;99.90
2565;DHT22;1292;48.020;7.822;2023-10-31T09:43:55;13.30;99.90
2565;DHT22;1292;48.020;7.822;2023-10-31T09:46:22;13.40;99.90
2565;DHT22;1292;48.020;7.822;2023-10-31T09:48:49;13.40;99.90
2565;DHT22;1292;48.020;7.822;2023-10-31T09:51:17;13.40;99.90
2565;DHT22;1292;48.020;7.822;2023-10-31T09:53:45;13.40;99.90
2565;DHT22;1292;48.020;7.822;2023-10-31T09:56:14;13.40;99.90
2565;DHT22;1292;48.020;7.822;2023-10-31T09:58:42;13.50;99.90
2565;DHT22;1292;48.020;7.822;2023-10-31T10:01:09;13.50;99.90
2565;DHT22;1292;48.020;7.822;2023-10-31T10:03:36;13.50;99.90
2565;DHT22;1292;48.020;7.822;2023-10-31T10:06:05;13.60;99.90
2565;DHT22;1292;48.020;7.822;2023-10-31T10:08:31;13.60;99.90
2565;DHT22;1292;48.020;7.822;2023-10-31T10:10:58;13.70;99.90
2565;DHT22;1292;48.020;7.822;2023-10-31T10:13:28;13.80;99.90
2565;DHT22;1292;48.020;7.822;2023-10-31T10:15:55;13.90;99.90
2565;DHT22;1292;48.020;7.822;2023-10-31T10:18:25;13.90;99.90
2565;DHT22;1292;48.020;7.822;2023-10-31T10:20:56;13.90;99.90
2565;DHT22;1292;48.020;7.822;2023-10-31T10:23:24;14.00;99.90
2565;DHT22;1292;48.020;7.822;2023-10-31T10:25:51;14.00;99.90
2565;DHT22;1292;48.020;7.822;2023-10-31T10:28:18;14.10;99.90
2565;DHT22;1292;48.020;7.822;2023-10-31T10:30:47;14.10;99.90
2565;DHT22;1292;48.020;7.822;2023-10-31T10:33:14;14.20;99.90
2565;DHT22;1292;48.020;7.822;2023-10-31T10:35:42;14.30;99.90
2565;DHT22;1292;48.020;7.822;2023-10-31T10:38:11;14.40;99.90
2565;DHT22;1292;48.020;7.822;2023-10-31T10:40:39;14.40;99.90
2565;DHT22;1292;48.020;7.822;2023-10-31T10:43:12;14.40;99.90
2565;DHT22;1292;48.020;7.822;2023-10-31T10:45:42;14.50;99.90
2565;DHT22;1292;48.020;7.822;2023-10-31T10:48:12;14.50;99.90
2565;DHT22;1292;48.020;7.822;2023-10-31T10:50:42;14.50;99.90
2565;DHT22;1292;48.020;7.822;2023-10-31T10:53:15;14.60;99.90
2565;DHT22;1292;48.020;7.822;2023-10-31T10:55:46;14.60;99.90
2565;DHT22;1292;48.020;7.822;2023-10-31T10:58:19;14.60;99.90
2565;DHT22;1292;48.020;7.822;2023-10-31T11:00:50;14.50;99.90
2565;DHT22;1292;48.020;7.822;2023-10-31T11:03:19;14.50;99.90
2565;DHT22;1292;48.020;7.822;2023-10-31T11:05:48;14.50;99.90
2565;DHT22;1292;48.020;7.822;2023-10-31T11:08:15;14.60;99.90
2565;DHT22;1292;48.020;7.822;2023-10-31T11:10:42;14.70;99.90
2565;DHT22;1292;48.020;7.822;2023-10-31T11:13:10;14.70;99.90
2565;DHT22;1292;48.020;7.822;2023-10-31T11:15:38;14.70;99.90
2565;DHT22;1292;48.020;7.822;2023-10-31T11:18:06;14.80;99.90
2565;DHT22;1292;48.020;7.822;2023-10-31T11:20:34;14.80;99.90
2565;DHT22;1292;48.020;7.822;2023-10-31T11:23:02;14.80;99.90
2565;DHT22;1292;48.020;7.822;2023-10-31T11:25:32;14.80;99.90
2565;DHT22;1292;48.020;7.822;2023-10-31T11:28:11;14.70;99.90
2565;DHT22;1292;48.020;7.822;2023-10-31T11:30:40;14.60;99.90
2565;DHT22;1292;48.020;7.822;2023-10-31T11:33:11;14.60;99.90
2565;DHT22;1292;48.020;7.822;2023-10-31T11:35:41;14.50;99.90
2565;DHT22;1292;48.020;7.822;2023-10-31T11:38:10;14.50;99.90
2565;DHT22;1292;48.020;7.822;2023-10-31T11:40:57;14.40;99.90
2565;DHT22;1292;48.020;7.822;2023-10-31T11:43:25;14.40;99.90
2565;DHT22;1292;48.020;7.822;2023-10-31T11:45:52;14.30;99.90
2565;DHT22;1292;48.020;7.822;2023-10-31T11:48:47;14.30;99.90
2565;DHT22;1292;48.020;7.822;2023-10-31T11:51:15;14.30;99.90
2565;DHT22;1292;48.020;7.822;2023-10-31T11:53:43;14.30;99.90
2565;DHT22;1292;48.020;7.822;2023-10-31T11:56:11;14.30;99.90
2565;DHT22;1292;48.020;7.822;2023-10-31T11:58:38;14.30;99.90
2565;DHT22;1292;48.020;7.822;2023-10-31T12:01:07;14.30;99.90
2565;DHT22;1292;48.020;7.822;2023-10-31T12:03:38;14.30;99.90
2565;DHT22;1292;48.020;7.822;2023-10-31T12:06:06;14.30;99.90
2565;DHT22;1292;48.020;7.822;2023-10-31T12:08:36;14.40;99.90
2565;DHT22;1292;48.020;7.822;2023-10-31T12:11:05;14.30;99.90
2565;DHT22;1292;48.020;7.822;2023-10-31T12:13:33;14.30;99.90
2565;DHT22;1292;48.020;7.822;2023-10-31T12:16:00;14.30;99.90
2565;DHT22;1292;48.020;7.822;2023-10-31T12:18:27;14.30;99.90
2565;DHT22;1292;48.020;7.822;2023-10-31T12:20:54;14.30;99.90
2565;DHT22;1292;48.020;7.822;2023-10-31T12:23:21;14.20;99.90
2565;DHT22;1292;48.020;7.822;2023-10-31T12:25:50;14.20;99.90
2565;DHT22;1292;48.020;7.822;2023-10-31T12:28:17;14.20;99.90
2565;DHT22;1292;48.020;7.822;2023-10-31T12:30:45;14.20;99.90
2565;DHT22;1292;48.020;7.822;2023-10-31T12:33:13;14.20;99.90
2565;DHT22;1292;48.020;7.822;2023-10-31T12:35:40;14.20;99.90
2565;DHT22;1292;48.020;7.822;2023-10-31T12:38:10;14.20;99.90
2565;DHT22;1292;48.020;7.822;2023-10-31T12:40:37;14.10;99.90
2565;DHT22;1292;48.020;7.822;2023-10-31T12:43:05;14.00;99.90
2565;DHT22;1292;48.020;7.822;2023-10-31T12:45:32;14.00;99.90
2565;DHT22;1292;48.020;7.822;2023-10-31T12:48:01;13.90;99.90
2565;DHT22;1292;48.020;7.822;2023-10-31T12:50:29;13.90;99.90
2565;DHT22;1292;48.020;7.822;2023-10-31T12:52:56;13.90;99.90
2565;DHT22;1292;48.020;7.822;2023-10-31T12:55:25;13.90;99.90
2565;DHT22;1292;48.020;7.822;2023-10-31T12:57:53;13.90;99.90
2565;DHT22;1292;48.020;7.822;2023-10-31T13:00:22;13.90;99.90
2565;DHT22;1292;48.020;7.822;2023-10-31T13:02:51;13.80;99.90
2565;DHT22;1292;48.020;7.822;2023-10-31T13:05:19;13.80;99.90
2565;DHT22;1292;48.020;7.822;2023-10-31T13:07:49;13.90;99.90
2565;DHT22;1292;48.020;7.822;2023-10-31T13:10:17;13.80;99.90
2565;DHT22;1292;48.020;7.822;2023-10-31T13:12:45;13.70;99.90
2565;DHT22;1292;48.020;7.822;2023-10-31T13:15:12;13.60;99.90
2565;DHT22;1292;48.020;7.822;2023-10-31T13:17:41;13.40;99.90
2565;DHT22;1292;48.020;7.822;2023-10-31T13:20:09;13.40;99.90
2565;DHT22;1292;48.020;7.822;2023-10-31T13:22:37;13.30;99.90
2565;DHT22;1292;48.020;7.822;2023-10-31T13:25:05;13.30;99.90
2565;DHT22;1292;48.020;7.822;2023-10-31T13:27:33;13.40;99.90
2565;DHT22;1292;48.020;7.822;2023-10-31T13:30:00;13.30;99.90
2565;DHT22;1292;48.020;7.822;2023-10-31T13:32:27;13.30;99.90
2565;DHT22;1292;48.020;7.822;2023-10-31T13:34:55;13.30;99.90
2565;DHT22;1292;48.020;7.822;2023-10-31T13:37:22;13.30;99.90
2565;DHT22;1292;48.020;7.822;2023-10-31T13:39:50;13.30;99.90
2565;DHT22;1292;48.020;7.822;2023-10-31T13:42:17;13.30;99.90
2565;DHT22;1292;48.020;7.822;2023-10-31T13:44:44;13.30;99.90
2565;DHT22;1292;48.020;7.822;2023-10-31T13:47:11;13.20;99.90
2565;DHT22;1292;48.020;7.822;2023-10-31T13:49:38;13.30;99.90
2565;DHT22;1292;48.020;7.822;2023-10-31T13:52:06;13.30;99.90
2565;DHT22;1292;48.020;7.822;2023-10-31T13:54:33;13.30;99.90
2565;DHT22;1292;48.020;7.822;2023-10-31T13:57:00;13.40;99.90
2565;DHT22;1292;48.020;7.822;2023-10-31T13:59:27;13.40;99.90
2565;DHT22;1292;48.020;7.822;2023-10-31T14:01:54;13.30;99.90
2565;DHT22;1292;48.020;7.822;2023-10-31T14:04:21;13.40;99.90
2565;DHT22;1292;48.020;7.822;2023-10-31T14:06:47;13.40;99.90
2565;DHT22;1292;48.020;7.822;2023-10-31T14:09:16;13.40;99.90
2565;DHT22;1292;48.020;7.822;2023-10-31T14:11:43;13.50;99.90
2565;DHT22;1292;48.020;7.822;2023-10-31T14:14:09;13.50;99.90
2565;DHT22;1292;48.020;7.822;2023-10-31T14:16:39;13.50;99.90
2565;DHT22;1292;48.020;7.822;2023-10-31T14:19:07;13.40;99.90
2565;DHT22;1292;48.020;7.822;2023-10-31T14:21:34;13.50;99.90
2565;DHT22;1292;48.020;7.822;2023-10-31T14:24:01;13.50;99.90
2565;DHT22;1292;48.020;7.822;2023-10-31T14:26:30;13.60;99.90
2565;DHT22;1292;48.020;7.822;2023-10-31T14:28:58;13.60;99.90
2565;DHT22;1292;48.020;7.822;2023-10-31T14:31:25;13.60;99.90
2565;DHT22;1292;48.020;7.822;2023-10-31T14:33:52;13.60;99.90
2565;DHT22;1292;48.020;7.822;2023-10-31T14:36:19;13.70;99.90
2565;DHT22;1292;48.020;7.822;2023-10-31T14:38:46;13.70;99.90
2565;DHT22;1292;48.020;7.822;2023-10-31T14:41:13;13.60;99.90
2565;DHT22;1292;48.020;7.822;2023-10-31T14:43:42;13.60;99.90
2565;DHT22;1292;48.020;7.822;2023-10-31T14:46:09;13.70;99.90
2565;DHT22;1292;48.020;7.822;2023-10-31T14:48:36;13.60;99.90
2565;DHT22;1292;48.020;7.822;2023-10-31T14:51:03;13.60;99.90
2565;DHT22;1292;48.020;7.822;2023-10-31T14:53:30;13.60;99.90
2565;DHT22;1292;48.020;7.822;2023-10-31T14:55:57;13.60;99.90
2565;DHT22;1292;48.020;7.822;2023-10-31T14:58:24;13.50;99.90
2565;DHT22;1292;48.020;7.822;2023-10-31T15:00:52;13.50;99.90
2565;DHT22;1292;48.020;7.822;2023-10-31T15:03:19;13.60;99.90
2565;DHT22;1292;48.020;7.822;2023-10-31T15:05:46;13.50;99.90
2565;DHT22;1292;48.020;7.822;2023-10-31T15:08:11;13.50;99.90
2565;DHT22;1292;48.020;7.822;2023-10-31T15:10:38;13.60;99.90
2565;DHT22;1292;48.020;7.822;2023-10-31T15:13:05;13.60;99.90
2565;DHT22;1292;48.020;7.822;2023-10-31T15:15:32;13.50;99.90
2565;DHT22;1292;48.020;7.822;2023-10-31T15:18:00;13.60;99.90
2565;DHT22;1292;48.020;7.822;2023-10-31T15:20:27;13.50;99.90
2565;DHT22;1292;48.020;7.822;2023-10-31T15:22:55;13.50;99.90
2565;DHT22;1292;48.020;7.822;2023-10-31T15:25:21;13.50;99.90
2565;DHT22;1292;48.020;7.822;2023-10-31T15:27:48;13.50;99.90
2565;DHT22;1292;48.020;7.822;2023-10-31T15:30:15;13.50;99.90
2565;DHT22;1292;48.020;7.822;2023-10-31T15:32:42;13.40;99.90
2565;DHT22;1292;48.020;7.822;2023-10-31T15:35:10;13.50;99.90
2565;DHT22;1292;48.020;7.822;2023-10-31T15:37:37;13.50;99.90
2565;DHT22;1292;48.020;7.822;2023-10-31T15:40:06;13.40;99.90
2565;DHT22;1292;48.020;7.822;2023-10-31T15:42:34;13.40;99.90
2565;DHT22;1292;48.020;7.822;2023-10-31T15:45:00;13.30;99.90
2565;DHT22;1292;48.020;7.822;2023-10-31T15:47:28;13.30;99.90
2565;DHT22;1292;48.020;7.822;2023-10-31T15:49:55;13.30;99.90
2565;DHT22;1292;48.020;7.822;2023-10-31T15:52:23;13.30;99.90
2565;DHT22;1292;48.020;7.822;2023-10-31T15:54:50;13.30;99.90
2565;DHT22;1292;48.020;7.822;2023-10-31T15:57:17;13.30;99.90
2565;DHT22;1292;48.020;7.822;2023-10-31T15:59:47;13.30;99.90
2565;DHT22;1292;48.020;7.822;2023-10-31T16:02:14;13.20;99.90
2565;DHT22;1292;48.020;7.822;2023-10-31T16:04:42;13.20;99.90
2565;DHT22;1292;48.020;7.822;2023-10-31T16:07:10;13.20;99.90
2565;DHT22;1292;48.020;7.822;2023-10-31T16:09:38;13.10;99.90
2565;DHT22;1292;48.020;7.822;2023-10-31T16:12:06;13.10;99.90
2565;DHT22;1292;48.020;7.822;2023-10-31T16:14:34;13.20;99.90
2565;DHT22;1292;48.020;7.822;2023-10-31T16:17:01;13.20;99.90
2565;DHT22;1292;48.020;7.822;2023-10-31T16:19:28;13.20;99.90
2565;DHT22;1292;48.020;7.822;2023-10-31T16:21:55;13.20;99.90
2565;DHT22;1292;48.020;7.822;2023-10-31T16:24:22;13.10;99.90
2565;DHT22;1292;48.020;7.822;2023-10-31T16:26:51;13.10;99.90
2565;DHT22;1292;48.020;7.822;2023-10-31T16:29:18;13.10;99.90
2565;DHT22;1292;48.020;7.822;2023-10-31T16:31:45;13.10;99.90
2565;DHT22;1292;48.020;7.822;2023-10-31T16:34:11;13.00;99.90
2565;DHT22;1292;48.020;7.822;2023-10-31T16:36:38;13.10;99.90
2565;DHT22;1292;48.020;7.822;2023-10-31T16:39:06;13.10;99.90
2565;DHT22;1292;48.020;7.822;2023-10-31T16:41:33;13.10;99.90
2565;DHT22;1292;48.020;7.822;2023-10-31T16:44:02;13.10;99.90
2565;DHT22;1292;48.020;7.822;2023-10-31T16:46:29;13.10;99.90
2565;DHT22;1292;48.020;7.822;2023-10-31T16:48:56;13.00;99.90
2565;DHT22;1292;48.020;7.822;2023-10-31T16:51:23;13.10;99.90
2565;DHT22;1292;48.020;7.822;2023-10-31T16:53:50;13.00;99.90
2565;DHT22;1292;48.020;7.822;2023-10-31T16:56:17;13.00;99.90
2565;DHT22;1292;48.020;7.822;2023-10-31T16:58:45;13.10;99.90
2565;DHT22;1292;48.020;7.822;2023-10-31T17:01:14;13.10;99.90
2565;DHT22;1292;48.020;7.822;2023-10-31T17:03:40;13.10;99.90
2565;DHT22;1292;48.020;7.822;2023-10-31T17:06:08;13.00;99.90
2565;DHT22;1292;48.020;7.822;2023-10-31T17:08:35;13.00;99.90
2565;DHT22;1292;48.020;7.822;2023-10-31T17:11:03;13.10;99.90
2565;DHT22;1292;48.020;7.822;2023-10-31T17:13:30;13.00;99.90
2565;DHT22;1292;48.020;7.822;2023-10-31T17:15:59;13.00;99.90
2565;DHT22;1292;48.020;7.822;2023-10-31T17:18:27;13.00;99.90
2565;DHT22;1292;48.020;7.822;2023-10-31T17:20:54;13.10;99.90
2565;DHT22;1292;48.020;7.822;2023-10-31T17:23:22;13.10;99.90
2565;DHT22;1292;48.020;7.822;2023-10-31T17:25:49;13.10;99.90
2565;DHT22;1292;48.020;7.822;2023-10-31T17:28:17;13.00;99.90
2565;DHT22;1292;48.020;7.822;2023-10-31T17:30:44;13.10;99.90
2565;DHT22;1292;48.020;7.822;2023-10-31T17:33:11;13.10;99.90
2565;DHT22;1292;48.020;7.822;2023-10-31T17:35:40;13.10;99.90
2565;DHT22;1292;48.020;7.822;2023-10-31T17:38:07;13.10;99.90
2565;DHT22;1292;48.020;7.822;2023-10-31T17:40:34;13.10;99.90
2565;DHT22;1292;48.020;7.822;2023-10-31T17:43:02;13.10;99.90
2565;DHT22;1292;48.020;7.822;2023-10-31T17:45:29;13.10;99.90
2565;DHT22;1292;48.020;7.822;2023-10-31T17:47:56;13.10;99.90
2565;DHT22;1292;48.020;7.822;2023-10-31T17:50:24;13.00;99.90
2565;DHT22;1292;48.020;7.822;2023-10-31T17:52:53;13.00;99.90
2565;DHT22;1292;48.020;7.822;2023-10-31T17:55:20;13.10;99.90
2565;DHT22;1292;48.020;7.822;2023-10-31T17:57:47;13.10;99.90
2565;DHT22;1292;48.020;7.822;2023-10-31T18:00:15;13.10;99.90
2565;DHT22;1292;48.020;7.822;2023-10-31T18:02:45;13.10;99.90
2565;DHT22;1292;48.020;7.822;2023-10-31T18:05:12;13.10;99.90
2565;DHT22;1292;48.020;7.822;2023-10-31T18:07:39;13.00;99.90
2565;DHT22;1292;48.020;7.822;2023-10-31T18:10:08;13.00;99.90
2565;DHT22;1292;48.020;7.822;2023-10-31T18:12:35;13.10;99.90
2565;DHT22;1292;48.020;7.822;2023-10-31T18:15:03;13.10;99.90
2565;DHT22;1292;48.020;7.822;2023-10-31T18:17:30;13.10;99.90
2565;DHT22;1292;48.020;7.822;2023-10-31T18:19:57;13.10;99.90
2565;DHT22;1292;48.020;7.822;2023-10-31T18:22:23;13.00;99.90
2565;DHT22;1292;48.020;7.822;2023-10-31T18:24:51;13.00;99.90
2565;DHT22;1292;48.020;7.822;2023-10-31T18:27:20;13.00;99.90
2565;DHT22;1292;48.020;7.822;2023-10-31T18:29:50;13.00;99.90
2565;DHT22;1292;48.020;7.822;2023-10-31T18:32:17;13.00;99.90
2565;DHT22;1292;48.020;7.822;2023-10-31T18:34:45;13.00;99.90
2565;DHT22;1292;48.020;7.822;2023-10-31T18:37:12;13.10;99.90
2565;DHT22;1292;48.020;7.822;2023-10-31T18:39:39;13.10;99.90
2565;DHT22;1292;48.020;7.822;2023-10-31T18:42:06;13.10;99.90
2565;DHT22;1292;48.020;7.822;2023-10-31T18:44:35;13.10;99.90
2565;DHT22;1292;48.020;7.822;2023-10-31T18:47:02;13.10;99.90
2565;DHT22;1292;48.020;7.822;2023-10-31T18:49:29;13.00;99.90
2565;DHT22;1292;48.020;7.822;2023-10-31T18:51:56;13.00;99.90
2565;DHT22;1292;48.020;7.822;2023-10-31T18:54:24;13.00;99.90
2565;DHT22;1292;48.020;7.822;2023-10-31T18:56:51;13.00;99.90
2565;DHT22;1292;48.020;7.822;2023-10-31T18:59:22;12.90;99.90
2565;DHT22;1292;48.020;7.822;2023-10-31T19:01:51;12.90;99.90
2565;DHT22;1292;48.020;7.822;2023-10-31T19:04:21;12.90;99.90
2565;DHT22;1292;48.020;7.822;2023-10-31T19:06:50;12.90;99.90
2565;DHT22;1292;48.020;7.822;2023-10-31T19:09:17;12.90;99.90
2565;DHT22;1292;48.020;7.822;2023-10-31T19:11:45;12.90;99.90
2565;DHT22;1292;48.020;7.822;2023-10-31T19:14:12;12.80;99.90
2565;DHT22;1292;48.020;7.822;2023-10-31T19:16:39;12.90;99.90
2565;DHT22;1292;48.020;7.822;2023-10-31T19:19:07;12.90;99.90
2565;DHT22;1292;48.020;7.822;2023-10-31T19:21:34;12.80;99.90
2565;DHT22;1292;48.020;7.822;2023-10-31T19:24:01;12.80;99.90
2565;DHT22;1292;48.020;7.822;2023-10-31T19:26:28;12.80;99.90
2565;DHT22;1292;48.020;7.822;2023-10-31T19:28:55;12.80;99.90
2565;DHT22;1292;48.020;7.822;2023-10-31T19:31:22;12.80;99.90
2565;DHT22;1292;48.020;7.822;2023-10-31T19:33:49;12.80;99.90
2565;DHT22;1292;48.020;7.822;2023-10-31T19:36:17;12.80;99.90
2565;DHT22;1292;48.020;7.822;2023-10-31T19:38:44;12.70;99.90
2565;DHT22;1292;48.020;7.822;2023-10-31T19:41:11;12.80;99.90
2565;DHT22;1292;48.020;7.822;2023-10-31T19:43:38;12.80;99.90
2565;DHT22;1292;48.020;7.822;2023-10-31T19:46:05;12.80;99.90
2565;DHT22;1292;48.020;7.822;2023-10-31T19:48:32;12.80;99.90
2565;DHT22;1292;48.020;7.822;2023-10-31T19:51:01;12.80;99.90
2565;DHT22;1292;48.020;7.822;2023-10-31T19:53:29;12.70;99.90
2565;DHT22;1292;48.020;7.822;2023-10-31T19:55:56;12.80;99.90
2565;DHT22;1292;48.020;7.822;2023-10-31T19:58:23;12.80;99.90
2565;DHT22;1292;48.020;7.822;2023-10-31T20:00:54;12.80;99.90
2565;DHT22;1292;48.020;7.822;2023-10-31T20:03:21;12.80;99.90
2565;DHT22;1292;48.020;7.822;2023-10-31T20:05:48;12.80;99.90
2565;DHT22;1292;48.020;7.822;2023-10-31T20:08:15;12.80;99.90
2565;DHT22;1292;48.020;7.822;2023-10-31T20:10:44;12.80;99.90
2565;DHT22;1292;48.020;7.822;2023-10-31T20:13:11;12.90;99.90
2565;DHT22;1292;48.020;7.822;2023-10-31T20:15:38;12.90;99.90
2565;DHT22;1292;48.020;7.822;2023-10-31T20:18:05;13.00;99.90
2565;DHT22;1292;48.020;7.822;2023-10-31T20:20:32;13.00;99.90
2565;DHT22;1292;48.020;7.822;2023-10-31T20:22:59;13.00;99.90
2565;DHT22;1292;48.020;7.822;2023-10-31T20:25:26;13.00;99.90
2565;DHT22;1292;48.020;7.822;2023-10-31T20:27:54;13.00;99.90
2565;DHT22;1292;48.020;7.822;2023-10-31T20:30:21;13.00;99.90
2565;DHT22;1292;48.020;7.822;2023-10-31T20:32:48;13.00;99.90
2565;DHT22;1292;48.020;7.822;2023-10-31T20:35:15;13.10;99.90
2565;DHT22;1292;48.020;7.822;2023-10-31T20:37:41;13.10;99.90
2565;DHT22;1292;48.020;7.822;2023-10-31T20:40:08;13.10;99.90
2565;DHT22;1292;48.020;7.822;2023-10-31T20:42:35;13.10;99.90
2565;DHT22;1292;48.020;7.822;2023-10-31T20:45:05;13.20;99.90
2565;DHT22;1292;48.020;7.822;2023-10-31T20:47:32;13.20;99.90
2565;DHT22;1292;48.020;7.822;2023-10-31T20:50:00;13.20;99.90
2565;DHT22;1292;48.020;7.822;2023-10-31T20:52:27;13.10;99.90
2565;DHT22;1292;48.020;7.822;2023-10-31T20:54:54;13.10;99.90
2565;DHT22;1292;48.020;7.822;2023-10-31T20:57:21;13.20;99.90
2565;DHT22;1292;48.020;7.822;2023-10-31T20:59:48;13.20;99.90
2565;DHT22;1292;48.020;7.822;2023-10-31T21:02:17;13.20;99.90
2565;DHT22;1292;48.020;7.822;2023-10-31T21:04:45;13.20;99.90
2565;DHT22;1292;48.020;7.822;2023-10-31T21:07:11;13.20;99.90
2565;DHT22;1292;48.020;7.822;2023-10-31T21:09:40;13.20;99.90
2565;DHT22;1292;48.020;7.822;2023-10-31T21:12:07;13.20;99.90
2565;DHT22;1292;48.020;7.822;2023-10-31T21:14:34;13.30;99.90
2565;DHT22;1292;48.020;7.822;2023-10-31T21:17:01;13.20;99.90
2565;DHT22;1292;48.020;7.822;2023-10-31T21:19:30;13.30;99.90
2565;DHT22;1292;48.020;7.822;2023-10-31T21:22:00;13.20;99.90
2565;DHT22;1292;48.020;7.822;2023-10-31T21:24:28;13.20;99.90
2565;DHT22;1292;48.020;7.822;2023-10-31T21:26:56;13.20;99.90
2565;DHT22;1292;48.020;7.822;2023-10-31T21:29:22;13.20;99.90
2565;DHT22;1292;48.020;7.822;2023-10-31T21:31:49;13.20;99.90
2565;DHT22;1292;48.020;7.822;2023-10-31T21:34:16;13.20;99.90
2565;DHT22;1292;48.020;7.822;2023-10-31T21:36:44;13.20;99.90
2565;DHT22;1292;48.020;7.822;2023-10-31T21:39:11;13.30;99.90
2565;DHT22;1292;48.020;7.822;2023-10-31T21:41:39;13.30;99.90
2565;DHT22;1292;48.020;7.822;2023-10-31T21:44:06;13.30;99.90
2565;DHT22;1292;48.020;7.822;2023-10-31T21:46:32;13.30;99.90
2565;DHT22;1292;48.020;7.822;2023-10-31T21:49:00;13.30;99.90
2565;DHT22;1292;48.020;7.822;2023-10-31T21:51:26;13.30;99.90
2565;DHT22;1292;48.020;7.822;2023-10-31T21:53:54;13.30;99.90
2565;DHT22;1292;48.020;7.822;2023-10-31T21:56:21;13.40;99.90
2565;DHT22;1292;48.020;7.822;2023-10-31T21:58:48;13.40;99.90
2565;DHT22;1292;48.020;7.822;2023-10-31T22:01:15;13.30;99.90
2565;DHT22;1292;48.020;7.822;2023-10-31T22:03:42;13.30;99.90
2565;DHT22;1292;48.020;7.822;2023-10-31T22:06:09;13.20;99.90
2565;DHT22;1292;48.020;7.822;2023-10-31T22:08:37;13.20;99.90
2565;DHT22;1292;48.020;7.822;2023-10-31T22:11:05;13.20;99.90
2565;DHT22;1292;48.020;7.822;2023-10-31T22:13:32;13.20;99.90
2565;DHT22;1292;48.020;7.822;2023-10-31T22:15:59;13.20;99.90
2565;DHT22;1292;48.020;7.822;2023-10-31T22:18:26;13.20;99.90
2565;DHT22;1292;48.020;7.822;2023-10-31T22:20:52;13.20;99.90
2565;DHT22;1292;48.020;7.822;2023-10-31T22:23:19;13.20;99.90
2565;DHT22;1292;48.020;7.822;2023-10-31T22:25:46;13.10;99.90
2565;DHT22;1292;48.020;7.822;2023-10-31T22:28:14;13.10;99.90
2565;DHT22;1292;48.020;7.822;2023-10-31T22:30:41;13.10;99.90
2565;DHT22;1292;48.020;7.822;2023-10-31T22:33:08;13.10;99.90
2565;DHT22;1292;48.020;7.822;2023-10-31T22:35:35;13.20;99.90
2565;DHT22;1292;48.020;7.822;2023-10-31T22:38:01;13.20;99.90
